Details From OMRK - RAS AL KHAIMAH INTL
To OMSJ - SHARJAH INTL
Flight Number -
Tags decoded
Created
Modified
Stats Distance 29 nm / 53 km
Max Altitude 0 ft / 0 m
Waypoints 2
Social Downloads 0
Likes 0
Share VATSIM

Download

Looking for another format? Having issues loading an existing format? Contact us
Advertisement - Login to hide

Notes

Requested: OMRK ALPOB OMSJ Unmatched points: ALPOB

Route

OMRK OMSJ

ID Type Via Altitude Latitude Longitude Leg Dist Tot Dist Heading (true) Name
O OMRK APT - 0 ft / 0 m 25.61335˚ 55.93883˚ - 0 nm - RAS AL KHAIMAH INTL
O OMSJ APT - 0 ft / 0 m 25.32859˚ 55.51722˚ 28 nm 28 nm 233° / 233° SHARJAH INTL

Altitude Profile

Advertisement - Login to hide

OMRK

Details ICAO OMRK (RKT)
Name RAS AL KHAIMAH INTL
Region United Arab Emirates
Timezone Asia/Dubai (UTC+4.0)
Stats Elevation 102 ft / 31 m (AMSL)
Location 25.613352° 55.938831°
Runways 1
Magnetic Variation 2.053° E

METAR

OMRK 131300Z 36010KT 9999 FEW040 23/06 Q1016 A3002

Decode

TAF

TAF OMRK 131056Z 1312/1418 35010KT 8000 FEW035 BECMG 1312/1315 11008KT PROB30 TEMPO 1404/1415 11018KT 4000 BLDU BECMG 1410/1412 34013KT BECMG 1412/1414 10008KT

Decode

Departure Runways

ID Width Length Bearing (true) Bearing (mag) Surface Threshold Offset Overrun Length
16 148 ft / 45 m 12,391 ft / 3,777 m 164.83° 162.78° Asphalt 0 ft / 0 m 165 ft / 50 m
34 148 ft / 45 m 12,391 ft / 3,777 m 344.84° 342.79° Asphalt 0 ft / 0 m 165 ft / 50 m

OMSJ

Details ICAO OMSJ (SHJ)
Name SHARJAH INTL
Region United Arab Emirates
Timezone Asia/Dubai (UTC+4.0)
Stats Elevation 111 ft / 34 m (AMSL)
Location 25.328587° 55.517218°
Runways 1
Magnetic Variation 2.044° E

METAR

OMSJ 131300Z 36009KT CAVOK 24/08 Q1016

Decode

TAF

TAF OMSJ 131056Z 1312/1418 36014KT 8000 FEW035 BECMG 1313/1315 08008KT BECMG 1410/1412 34013KT BECMG 1413/1415 10008KT

Decode

Destination Runways

ID Width Length Bearing (true) Bearing (mag) Surface Threshold Offset Overrun Length
12 148 ft / 45 m 13,266 ft / 4,043 m 122.45° 120.41° Asphalt 689 ft / 210 m 488 ft / 149 m
30 148 ft / 45 m 13,266 ft / 4,043 m 302.47° 300.43° Asphalt 984 ft / 300 m 488 ft / 149 m

Approach Navaids

Runway Type Ident Frequency Range Bearing (true) Bearing (mag) Slope Elevation
30 Localiser ISJ 109.70 MHz 18 nm / 33 km 302.45° 300.40° - 111 ft / 34 m (AMSL)
30 Glidescope ISJ 109.70 MHz 10 nm / 19 km 302.46° 300.42° 3.00° 111 ft / 34 m (AMSL)

Popular Alternatives